Ewell, Maryland
Current Conditions -  °F | °C
As of 9:58 PM on Monday 22 Dec 2014 (Local Time) from KTGI Reporting Station
Overcast Overcast  
Wind Chill: 35°   Ceiling: 400
Heat Index: 43°   Visibility: 2mi
Dew Point: 43°   Wind: 15mph
Humidity: 100%   Direction: 10°N
Pressure: 30.03"   Gusts: 20mph
Location:  37.99°N, 76.03°W
Report Text: KTGI 230258Z AUTO 01013G17KT 2SM OVC004 06/06 A3003 RMK AO1 P0001
Loading
Personal Weather Stations






























Interactive Weather Map New forecast layout! Learn more

10-Day Weather Forecast

Advertisements
Track Severe Weather on mobile